sensor_id;sensor_type;location;lat;lon;timestamp;P1;durP1;ratioP1;P2;durP2;ratioP2
12593;SDS011;6362;50.208;9.182;2022-08-05T00:01:46;4.93;;;1.80;;
12593;SDS011;6362;50.208;9.182;2022-08-05T00:04:12;4.95;;;1.70;;
12593;SDS011;6362;50.208;9.182;2022-08-05T00:06:37;5.22;;;1.70;;
12593;SDS011;6362;50.208;9.182;2022-08-05T00:09:03;4.70;;;1.90;;
12593;SDS011;6362;50.208;9.182;2022-08-05T00:11:29;5.78;;;1.77;;
12593;SDS011;6362;50.208;9.182;2022-08-05T00:13:55;4.45;;;1.83;;
12593;SDS011;6362;50.208;9.182;2022-08-05T00:16:21;6.90;;;1.95;;
12593;SDS011;6362;50.208;9.182;2022-08-05T00:18:47;5.50;;;1.70;;
12593;SDS011;6362;50.208;9.182;2022-08-05T00:21:13;6.18;;;1.40;;
12593;SDS011;6362;50.208;9.182;2022-08-05T00:23:40;8.30;;;1.92;;
12593;SDS011;6362;50.208;9.182;2022-08-05T00:26:07;6.55;;;1.80;;
12593;SDS011;6362;50.208;9.182;2022-08-05T00:28:33;16.70;;;2.10;;
12593;SDS011;6362;50.208;9.182;2022-08-05T00:30:59;9.10;;;1.83;;
12593;SDS011;6362;50.208;9.182;2022-08-05T00:33:25;10.48;;;2.20;;
12593;SDS011;6362;50.208;9.182;2022-08-05T00:35:50;5.40;;;1.67;;
12593;SDS011;6362;50.208;9.182;2022-08-05T00:38:16;5.57;;;2.03;;
12593;SDS011;6362;50.208;9.182;2022-08-05T00:40:45;5.55;;;1.85;;
12593;SDS011;6362;50.208;9.182;2022-08-05T00:43:12;5.35;;;1.90;;
12593;SDS011;6362;50.208;9.182;2022-08-05T00:45:38;6.43;;;1.80;;
12593;SDS011;6362;50.208;9.182;2022-08-05T00:48:04;14.65;;;1.90;;
12593;SDS011;6362;50.208;9.182;2022-08-05T00:50:30;8.68;;;1.95;;
12593;SDS011;6362;50.208;9.182;2022-08-05T00:52:55;6.72;;;1.67;;
12593;SDS011;6362;50.208;9.182;2022-08-05T00:55:21;7.03;;;1.90;;
12593;SDS011;6362;50.208;9.182;2022-08-05T00:57:47;7.28;;;1.77;;
12593;SDS011;6362;50.208;9.182;2022-08-05T01:00:13;5.95;;;1.65;;
12593;SDS011;6362;50.208;9.182;2022-08-05T01:02:38;7.28;;;1.70;;
12593;SDS011;6362;50.208;9.182;2022-08-05T01:05:04;4.25;;;1.70;;
12593;SDS011;6362;50.208;9.182;2022-08-05T01:07:30;7.18;;;2.30;;
12593;SDS011;6362;50.208;9.182;2022-08-05T01:09:55;6.82;;;1.90;;
12593;SDS011;6362;50.208;9.182;2022-08-05T01:12:21;10.23;;;2.17;;
12593;SDS011;6362;50.208;9.182;2022-08-05T01:17:28;7.30;;;2.28;;
12593;SDS011;6362;50.208;9.182;2022-08-05T01:27:59;4.97;;;2.30;;
12593;SDS011;6362;50.208;9.182;2022-08-05T01:30:39;5.60;;;2.55;;
12593;SDS011;6362;50.208;9.182;2022-08-05T01:33:16;6.18;;;2.22;;
12593;SDS011;6362;50.208;9.182;2022-08-05T01:35:45;6.95;;;2.08;;
12593;SDS011;6362;50.208;9.182;2022-08-05T01:38:13;6.35;;;2.47;;
12593;SDS011;6362;50.208;9.182;2022-08-05T01:40:39;13.57;;;3.05;;
12593;SDS011;6362;50.208;9.182;2022-08-05T01:43:06;9.90;;;2.65;;
12593;SDS011;6362;50.208;9.182;2022-08-05T01:45:33;10.35;;;2.35;;
12593;SDS011;6362;50.208;9.182;2022-08-05T01:48:00;7.25;;;2.42;;
12593;SDS011;6362;50.208;9.182;2022-08-05T01:50:28;8.10;;;2.30;;
12593;SDS011;6362;50.208;9.182;2022-08-05T01:53:01;6.85;;;2.10;;
12593;SDS011;6362;50.208;9.182;2022-08-05T01:55:29;6.55;;;2.30;;
12593;SDS011;6362;50.208;9.182;2022-08-05T01:57:57;9.95;;;2.83;;
12593;SDS011;6362;50.208;9.182;2022-08-05T02:00:24;7.50;;;2.17;;
12593;SDS011;6362;50.208;9.182;2022-08-05T02:02:57;10.38;;;2.38;;
12593;SDS011;6362;50.208;9.182;2022-08-05T02:05:29;7.40;;;2.17;;
12593;SDS011;6362;50.208;9.182;2022-08-05T02:07:57;7.53;;;2.38;;
12593;SDS011;6362;50.208;9.182;2022-08-05T02:10:24;7.00;;;2.70;;
12593;SDS011;6362;50.208;9.182;2022-08-05T02:12:54;6.68;;;2.20;;
12593;SDS011;6362;50.208;9.182;2022-08-05T02:16:10;5.13;;;2.33;;
12593;SDS011;6362;50.208;9.182;2022-08-05T02:18:31;8.43;;;1.95;;
12593;SDS011;6362;50.208;9.182;2022-08-05T02:21:11;9.27;;;2.10;;
12593;SDS011;6362;50.208;9.182;2022-08-05T02:23:39;7.25;;;2.70;;
12593;SDS011;6362;50.208;9.182;2022-08-05T02:26:06;5.78;;;2.13;;
12593;SDS011;6362;50.208;9.182;2022-08-05T02:28:40;6.43;;;2.30;;
12593;SDS011;6362;50.208;9.182;2022-08-05T02:31:08;5.93;;;1.90;;
12593;SDS011;6362;50.208;9.182;2022-08-05T02:33:39;9.65;;;2.22;;
12593;SDS011;6362;50.208;9.182;2022-08-05T02:36:11;5.95;;;2.05;;
12593;SDS011;6362;50.208;9.182;2022-08-05T02:38:40;7.00;;;2.00;;
12593;SDS011;6362;50.208;9.182;2022-08-05T02:41:07;5.07;;;1.70;;
12593;SDS011;6362;50.208;9.182;2022-08-05T02:43:35;5.10;;;1.90;;
12593;SDS011;6362;50.208;9.182;2022-08-05T02:46:03;7.13;;;2.10;;
12593;SDS011;6362;50.208;9.182;2022-08-05T02:48:29;8.73;;;2.38;;
12593;SDS011;6362;50.208;9.182;2022-08-05T02:50:58;5.75;;;2.25;;
12593;SDS011;6362;50.208;9.182;2022-08-05T02:53:25;5.55;;;2.00;;
12593;SDS011;6362;50.208;9.182;2022-08-05T02:55:53;4.95;;;1.98;;
12593;SDS011;6362;50.208;9.182;2022-08-05T02:58:20;4.07;;;1.98;;
12593;SDS011;6362;50.208;9.182;2022-08-05T03:00:46;4.05;;;2.13;;
12593;SDS011;6362;50.208;9.182;2022-08-05T03:03:15;6.60;;;2.20;;
12593;SDS011;6362;50.208;9.182;2022-08-05T03:05:44;6.53;;;2.28;;
12593;SDS011;6362;50.208;9.182;2022-08-05T03:08:11;3.47;;;2.10;;
12593;SDS011;6362;50.208;9.182;2022-08-05T03:10:40;7.45;;;2.40;;
12593;SDS011;6362;50.208;9.182;2022-08-05T03:13:13;4.32;;;2.35;;
12593;SDS011;6362;50.208;9.182;2022-08-05T03:15:41;5.13;;;2.28;;
12593;SDS011;6362;50.208;9.182;2022-08-05T03:18:07;3.88;;;1.90;;
12593;SDS011;6362;50.208;9.182;2022-08-05T03:20:33;4.50;;;2.17;;
12593;SDS011;6362;50.208;9.182;2022-08-05T03:22:58;5.53;;;2.30;;
12593;SDS011;6362;50.208;9.182;2022-08-05T03:25:24;5.85;;;2.30;;
12593;SDS011;6362;50.208;9.182;2022-08-05T03:27:51;8.95;;;2.42;;
12593;SDS011;6362;50.208;9.182;2022-08-05T03:30:17;6.47;;;2.33;;
12593;SDS011;6362;50.208;9.182;2022-08-05T03:32:42;5.97;;;2.33;;
12593;SDS011;6362;50.208;9.182;2022-08-05T03:35:08;5.78;;;2.40;;
12593;SDS011;6362;50.208;9.182;2022-08-05T03:37:33;10.40;;;2.95;;
12593;SDS011;6362;50.208;9.182;2022-08-05T03:39:59;6.47;;;2.83;;
12593;SDS011;6362;50.208;9.182;2022-08-05T03:42:25;9.07;;;2.45;;
12593;SDS011;6362;50.208;9.182;2022-08-05T03:44:51;9.07;;;2.20;;
12593;SDS011;6362;50.208;9.182;2022-08-05T03:47:16;6.65;;;2.47;;
12593;SDS011;6362;50.208;9.182;2022-08-05T03:49:42;5.40;;;2.50;;
12593;SDS011;6362;50.208;9.182;2022-08-05T03:52:11;6.05;;;2.50;;
12593;SDS011;6362;50.208;9.182;2022-08-05T03:54:51;6.22;;;2.60;;
12593;SDS011;6362;50.208;9.182;2022-08-05T03:57:21;5.50;;;2.90;;
12593;SDS011;6362;50.208;9.182;2022-08-05T03:59:57;5.38;;;2.80;;
12593;SDS011;6362;50.208;9.182;2022-08-05T04:02:28;5.07;;;2.50;;
12593;SDS011;6362;50.208;9.182;2022-08-05T04:04:57;5.80;;;2.50;;
12593;SDS011;6362;50.208;9.182;2022-08-05T04:07:24;5.13;;;2.20;;
12593;SDS011;6362;50.208;9.182;2022-08-05T04:09:51;3.88;;;2.30;;
12593;SDS011;6362;50.208;9.182;2022-08-05T04:12:18;6.75;;;2.42;;
12593;SDS011;6362;50.208;9.182;2022-08-05T04:14:45;6.25;;;2.22;;
12593;SDS011;6362;50.208;9.182;2022-08-05T04:17:11;5.85;;;2.20;;
12593;SDS011;6362;50.208;9.182;2022-08-05T04:19:44;5.55;;;2.20;;
12593;SDS011;6362;50.208;9.182;2022-08-05T04:22:11;4.45;;;2.25;;
12593;SDS011;6362;50.208;9.182;2022-08-05T04:24:37;6.22;;;2.60;;
12593;SDS011;6362;50.208;9.182;2022-08-05T04:27:03;6.78;;;2.63;;
12593;SDS011;6362;50.208;9.182;2022-08-05T04:29:29;6.80;;;2.50;;
12593;SDS011;6362;50.208;9.182;2022-08-05T04:31:54;5.50;;;2.30;;
12593;SDS011;6362;50.208;9.182;2022-08-05T04:34:20;4.85;;;2.40;;
12593;SDS011;6362;50.208;9.182;2022-08-05T04:36:45;5.47;;;2.30;;
12593;SDS011;6362;50.208;9.182;2022-08-05T04:39:10;4.93;;;2.50;;
12593;SDS011;6362;50.208;9.182;2022-08-05T04:41:36;4.70;;;1.90;;
12593;SDS011;6362;50.208;9.182;2022-08-05T04:44:01;5.07;;;2.90;;
12593;SDS011;6362;50.208;9.182;2022-08-05T04:46:27;4.88;;;2.58;;
12593;SDS011;6362;50.208;9.182;2022-08-05T04:48:52;7.30;;;2.55;;
12593;SDS011;6362;50.208;9.182;2022-08-05T04:51:18;4.43;;;2.40;;
12593;SDS011;6362;50.208;9.182;2022-08-05T04:53:43;5.80;;;2.30;;
12593;SDS011;6362;50.208;9.182;2022-08-05T04:56:09;5.05;;;2.33;;
12593;SDS011;6362;50.208;9.182;2022-08-05T04:58:34;4.50;;;2.60;;
12593;SDS011;6362;50.208;9.182;2022-08-05T05:01:00;8.70;;;2.92;;
12593;SDS011;6362;50.208;9.182;2022-08-05T05:03:26;6.30;;;3.00;;
12593;SDS011;6362;50.208;9.182;2022-08-05T05:05:51;4.47;;;2.33;;
12593;SDS011;6362;50.208;9.182;2022-08-05T05:08:16;5.88;;;2.72;;
12593;SDS011;6362;50.208;9.182;2022-08-05T05:10:43;6.95;;;3.15;;
12593;SDS011;6362;50.208;9.182;2022-08-05T05:13:11;5.43;;;3.08;;
12593;SDS011;6362;50.208;9.182;2022-08-05T05:15:40;4.90;;;2.70;;
12593;SDS011;6362;50.208;9.182;2022-08-05T05:18:07;5.50;;;3.13;;
12593;SDS011;6362;50.208;9.182;2022-08-05T05:20:33;5.68;;;3.17;;
12593;SDS011;6362;50.208;9.182;2022-08-05T05:23:00;6.15;;;3.55;;
12593;SDS011;6362;50.208;9.182;2022-08-05T05:25:29;5.28;;;2.60;;
12593;SDS011;6362;50.208;9.182;2022-08-05T05:27:55;6.43;;;2.88;;
12593;SDS011;6362;50.208;9.182;2022-08-05T05:30:21;3.95;;;2.72;;
12593;SDS011;6362;50.208;9.182;2022-08-05T05:32:47;9.73;;;2.95;;
12593;SDS011;6362;50.208;9.182;2022-08-05T05:35:13;4.82;;;2.75;;
12593;SDS011;6362;50.208;9.182;2022-08-05T05:38:12;6.40;;;2.80;;
12593;SDS011;6362;50.208;9.182;2022-08-05T05:40:32;4.43;;;2.80;;
12593;SDS011;6362;50.208;9.182;2022-08-05T05:42:58;4.65;;;2.85;;
12593;SDS011;6362;50.208;9.182;2022-08-05T05:45:24;8.88;;;3.05;;
12593;SDS011;6362;50.208;9.182;2022-08-05T05:47:49;7.57;;;3.38;;
12593;SDS011;6362;50.208;9.182;2022-08-05T05:50:17;6.35;;;2.72;;
12593;SDS011;6362;50.208;9.182;2022-08-05T05:52:44;6.60;;;3.22;;
12593;SDS011;6362;50.208;9.182;2022-08-05T05:55:11;8.07;;;3.15;;
12593;SDS011;6362;50.208;9.182;2022-08-05T05:57:38;5.97;;;2.80;;
12593;SDS011;6362;50.208;9.182;2022-08-05T06:00:06;8.80;;;3.47;;
12593;SDS011;6362;50.208;9.182;2022-08-05T06:02:33;5.53;;;2.95;;
12593;SDS011;6362;50.208;9.182;2022-08-05T06:04:59;5.85;;;2.80;;
12593;SDS011;6362;50.208;9.182;2022-08-05T06:07:24;7.60;;;3.65;;
12593;SDS011;6362;50.208;9.182;2022-08-05T06:09:49;6.55;;;3.47;;
12593;SDS011;6362;50.208;9.182;2022-08-05T06:12:15;5.63;;;2.88;;
12593;SDS011;6362;50.208;9.182;2022-08-05T06:14:40;6.28;;;3.20;;
12593;SDS011;6362;50.208;9.182;2022-08-05T06:17:08;7.90;;;3.75;;
12593;SDS011;6362;50.208;9.182;2022-08-05T06:19:37;8.82;;;3.35;;
12593;SDS011;6362;50.208;9.182;2022-08-05T06:22:03;6.30;;;3.55;;
12593;SDS011;6362;50.208;9.182;2022-08-05T06:24:30;5.28;;;3.50;;
12593;SDS011;6362;50.208;9.182;2022-08-05T06:26:57;7.28;;;3.35;;
12593;SDS011;6362;50.208;9.182;2022-08-05T06:29:22;8.50;;;3.95;;
12593;SDS011;6362;50.208;9.182;2022-08-05T06:31:48;5.93;;;3.63;;
12593;SDS011;6362;50.208;9.182;2022-08-05T06:34:13;8.18;;;3.70;;
12593;SDS011;6362;50.208;9.182;2022-08-05T06:36:39;5.53;;;3.40;;
12593;SDS011;6362;50.208;9.182;2022-08-05T06:39:04;5.32;;;4.07;;
12593;SDS011;6362;50.208;9.182;2022-08-05T06:41:30;6.95;;;3.95;;
12593;SDS011;6362;50.208;9.182;2022-08-05T06:43:55;8.25;;;4.13;;
12593;SDS011;6362;50.208;9.182;2022-08-05T06:46:21;6.85;;;3.90;;
12593;SDS011;6362;50.208;9.182;2022-08-05T06:48:46;9.02;;;3.40;;
12593;SDS011;6362;50.208;9.182;2022-08-05T06:51:12;6.65;;;3.47;;
12593;SDS011;6362;50.208;9.182;2022-08-05T06:53:37;6.15;;;3.60;;
12593;SDS011;6362;50.208;9.182;2022-08-05T06:56:03;6.22;;;3.15;;
12593;SDS011;6362;50.208;9.182;2022-08-05T06:58:29;7.15;;;3.92;;
12593;SDS011;6362;50.208;9.182;2022-08-05T07:01:03;6.55;;;3.90;;
12593;SDS011;6362;50.208;9.182;2022-08-05T07:03:30;8.00;;;4.22;;
12593;SDS011;6362;50.208;9.182;2022-08-05T07:05:56;9.82;;;4.32;;
12593;SDS011;6362;50.208;9.182;2022-08-05T07:08:21;7.05;;;3.15;;
12593;SDS011;6362;50.208;9.182;2022-08-05T07:10:47;6.93;;;3.42;;
12593;SDS011;6362;50.208;9.182;2022-08-05T07:13:13;7.03;;;3.45;;
12593;SDS011;6362;50.208;9.182;2022-08-05T07:15:57;6.82;;;3.65;;
12593;SDS011;6362;50.208;9.182;2022-08-05T07:18:41;6.65;;;3.90;;
12593;SDS011;6362;50.208;9.182;2022-08-05T07:21:06;7.82;;;3.80;;
12593;SDS011;6362;50.208;9.182;2022-08-05T07:23:32;7.22;;;3.47;;
12593;SDS011;6362;50.208;9.182;2022-08-05T07:25:58;7.93;;;4.28;;
12593;SDS011;6362;50.208;9.182;2022-08-05T07:28:24;7.03;;;3.50;;
12593;SDS011;6362;50.208;9.182;2022-08-05T07:30:50;9.18;;;3.33;;
12593;SDS011;6362;50.208;9.182;2022-08-05T07:33:15;6.63;;;3.40;;
12593;SDS011;6362;50.208;9.182;2022-08-05T07:35:41;8.40;;;4.25;;
12593;SDS011;6362;50.208;9.182;2022-08-05T07:38:06;8.30;;;3.50;;
12593;SDS011;6362;50.208;9.182;2022-08-05T07:40:32;7.07;;;3.28;;
12593;SDS011;6362;50.208;9.182;2022-08-05T07:42:57;8.32;;;3.92;;
12593;SDS011;6362;50.208;9.182;2022-08-05T07:45:23;10.05;;;4.30;;
12593;SDS011;6362;50.208;9.182;2022-08-05T07:47:48;8.98;;;4.35;;
12593;SDS011;6362;50.208;9.182;2022-08-05T07:50:14;7.82;;;4.47;;
12593;SDS011;6362;50.208;9.182;2022-08-05T07:52:40;8.38;;;4.80;;
12593;SDS011;6362;50.208;9.182;2022-08-05T07:55:07;6.50;;;4.35;;
12593;SDS011;6362;50.208;9.182;2022-08-05T07:57:33;7.53;;;4.93;;
12593;SDS011;6362;50.208;9.182;2022-08-05T07:59:59;7.85;;;4.43;;
12593;SDS011;6362;50.208;9.182;2022-08-05T08:02:25;7.95;;;4.13;;
12593;SDS011;6362;50.208;9.182;2022-08-05T08:04:51;7.43;;;3.72;;
12593;SDS011;6362;50.208;9.182;2022-08-05T08:07:18;6.90;;;4.25;;
12593;SDS011;6362;50.208;9.182;2022-08-05T08:09:44;10.65;;;4.20;;
12593;SDS011;6362;50.208;9.182;2022-08-05T08:12:10;6.35;;;3.17;;
12593;SDS011;6362;50.208;9.182;2022-08-05T08:14:42;4.82;;;3.58;;
12593;SDS011;6362;50.208;9.182;2022-08-05T08:17:09;6.75;;;4.40;;
12593;SDS011;6362;50.208;9.182;2022-08-05T08:19:36;7.57;;;4.85;;
12593;SDS011;6362;50.208;9.182;2022-08-05T08:22:02;9.02;;;5.00;;
12593;SDS011;6362;50.208;9.182;2022-08-05T08:24:28;9.52;;;4.82;;
12593;SDS011;6362;50.208;9.182;2022-08-05T08:26:54;10.85;;;4.38;;
12593;SDS011;6362;50.208;9.182;2022-08-05T08:29:20;6.88;;;4.40;;
12593;SDS011;6362;50.208;9.182;2022-08-05T08:31:45;7.03;;;4.00;;
12593;SDS011;6362;50.208;9.182;2022-08-05T08:34:11;6.70;;;4.93;;
12593;SDS011;6362;50.208;9.182;2022-08-05T08:36:37;8.02;;;4.93;;
12593;SDS011;6362;50.208;9.182;2022-08-05T08:39:02;10.40;;;5.50;;
12593;SDS011;6362;50.208;9.182;2022-08-05T08:41:28;9.15;;;4.65;;
12593;SDS011;6362;50.208;9.182;2022-08-05T08:43:57;7.25;;;4.80;;
12593;SDS011;6362;50.208;9.182;2022-08-05T08:46:24;7.47;;;4.78;;
12593;SDS011;6362;50.208;9.182;2022-08-05T08:48:53;9.48;;;4.60;;
12593;SDS011;6362;50.208;9.182;2022-08-05T08:51:19;6.68;;;4.65;;
12593;SDS011;6362;50.208;9.182;2022-08-05T08:53:45;5.88;;;3.60;;
12593;SDS011;6362;50.208;9.182;2022-08-05T08:56:12;9.18;;;3.90;;
12593;SDS011;6362;50.208;9.182;2022-08-05T08:58:38;6.55;;;4.00;;
12593;SDS011;6362;50.208;9.182;2022-08-05T09:01:05;5.75;;;3.97;;
12593;SDS011;6362;50.208;9.182;2022-08-05T09:03:32;5.38;;;3.25;;
12593;SDS011;6362;50.208;9.182;2022-08-05T09:05:58;7.00;;;3.55;;
12593;SDS011;6362;50.208;9.182;2022-08-05T09:08:23;7.15;;;3.08;;
12593;SDS011;6362;50.208;9.182;2022-08-05T09:10:49;6.13;;;3.45;;
12593;SDS011;6362;50.208;9.182;2022-08-05T09:13:15;3.50;;;2.65;;
12593;SDS011;6362;50.208;9.182;2022-08-05T09:15:43;4.05;;;2.78;;
12593;SDS011;6362;50.208;9.182;2022-08-05T09:18:09;5.28;;;2.90;;
12593;SDS011;6362;50.208;9.182;2022-08-05T09:20:35;4.82;;;2.60;;
12593;SDS011;6362;50.208;9.182;2022-08-05T09:23:05;5.05;;;3.15;;
12593;SDS011;6362;50.208;9.182;2022-08-05T09:25:35;4.78;;;2.55;;
12593;SDS011;6362;50.208;9.182;2022-08-05T09:28:12;5.30;;;2.60;;
12593;SDS011;6362;50.208;9.182;2022-08-05T09:39:19;4.93;;;2.38;;
12593;SDS011;6362;50.208;9.182;2022-08-05T09:41:55;4.35;;;2.17;;
12593;SDS011;6362;50.208;9.182;2022-08-05T09:44:38;4.40;;;2.35;;
12593;SDS011;6362;50.208;9.182;2022-08-05T09:49:41;3.72;;;2.40;;
12593;SDS011;6362;50.208;9.182;2022-08-05T09:52:27;4.05;;;2.50;;
12593;SDS011;6362;50.208;9.182;2022-08-05T09:55:05;5.03;;;2.45;;
12593;SDS011;6362;50.208;9.182;2022-08-05T09:57:44;4.13;;;2.28;;
12593;SDS011;6362;50.208;9.182;2022-08-05T10:00:13;5.07;;;2.28;;
12593;SDS011;6362;50.208;9.182;2022-08-05T10:02:51;4.38;;;2.28;;
12593;SDS011;6362;50.208;9.182;2022-08-05T10:05:25;5.90;;;2.40;;
12593;SDS011;6362;50.208;9.182;2022-08-05T10:07:53;4.40;;;2.22;;
12593;SDS011;6362;50.208;9.182;2022-08-05T10:10:25;4.85;;;2.30;;
12593;SDS011;6362;50.208;9.182;2022-08-05T10:13:01;4.53;;;2.53;;
12593;SDS011;6362;50.208;9.182;2022-08-05T10:15:32;3.42;;;2.00;;
12593;SDS011;6362;50.208;9.182;2022-08-05T10:18:13;4.63;;;2.40;;
12593;SDS011;6362;50.208;9.182;2022-08-05T10:23:15;4.00;;;2.20;;
12593;SDS011;6362;50.208;9.182;2022-08-05T10:25:44;2.95;;;2.03;;
12593;SDS011;6362;50.208;9.182;2022-08-05T10:28:09;4.22;;;2.40;;
12593;SDS011;6362;50.208;9.182;2022-08-05T10:30:35;6.22;;;2.28;;
12593;SDS011;6362;50.208;9.182;2022-08-05T10:33:01;4.38;;;2.60;;
12593;SDS011;6362;50.208;9.182;2022-08-05T10:35:29;4.82;;;2.83;;
12593;SDS011;6362;50.208;9.182;2022-08-05T10:37:55;4.70;;;2.72;;
12593;SDS011;6362;50.208;9.182;2022-08-05T10:40:27;4.13;;;2.60;;
12593;SDS011;6362;50.208;9.182;2022-08-05T10:42:55;4.55;;;2.53;;
12593;SDS011;6362;50.208;9.182;2022-08-05T10:45:26;4.38;;;2.90;;
12593;SDS011;6362;50.208;9.182;2022-08-05T10:47:54;5.35;;;2.80;;
12593;SDS011;6362;50.208;9.182;2022-08-05T10:50:21;10.18;;;2.45;;
12593;SDS011;6362;50.208;9.182;2022-08-05T10:52:47;5.97;;;2.40;;
12593;SDS011;6362;50.208;9.182;2022-08-05T10:55:24;5.15;;;2.45;;
12593;SDS011;6362;50.208;9.182;2022-08-05T10:58:06;4.80;;;2.95;;
12593;SDS011;6362;50.208;9.182;2022-08-05T11:00:32;6.00;;;2.55;;
12593;SDS011;6362;50.208;9.182;2022-08-05T11:05:30;5.78;;;3.08;;
12593;SDS011;6362;50.208;9.182;2022-08-05T11:07:58;4.90;;;2.70;;
12593;SDS011;6362;50.208;9.182;2022-08-05T11:10:26;5.78;;;2.63;;
12593;SDS011;6362;50.208;9.182;2022-08-05T11:12:52;3.53;;;2.75;;
12593;SDS011;6362;50.208;9.182;2022-08-05T11:15:22;6.95;;;3.28;;
12593;SDS011;6362;50.208;9.182;2022-08-05T11:18:22;6.25;;;2.83;;
12593;SDS011;6362;50.208;9.182;2022-08-05T11:20:51;6.35;;;2.78;;
12593;SDS011;6362;50.208;9.182;2022-08-05T11:26:00;6.50;;;2.78;;
12593;SDS011;6362;50.208;9.182;2022-08-05T11:33:26;5.97;;;3.13;;
12593;SDS011;6362;50.208;9.182;2022-08-05T11:41:06;4.63;;;2.95;;
12593;SDS011;6362;50.208;9.182;2022-08-05T11:43:32;5.57;;;3.30;;
12593;SDS011;6362;50.208;9.182;2022-08-05T11:45:59;5.75;;;2.80;;
12593;SDS011;6362;50.208;9.182;2022-08-05T11:48:25;4.82;;;3.13;;
12593;SDS011;6362;50.208;9.182;2022-08-05T11:50:52;7.18;;;3.03;;
12593;SDS011;6362;50.208;9.182;2022-08-05T11:53:19;6.10;;;2.60;;
12593;SDS011;6362;50.208;9.182;2022-08-05T11:55:53;5.15;;;2.72;;
12593;SDS011;6362;50.208;9.182;2022-08-05T11:58:44;5.03;;;2.88;;
12593;SDS011;6362;50.208;9.182;2022-08-05T12:01:10;6.80;;;3.05;;
12593;SDS011;6362;50.208;9.182;2022-08-05T12:03:46;6.80;;;2.90;;
12593;SDS011;6362;50.208;9.182;2022-08-05T12:06:14;3.17;;;2.17;;
12593;SDS011;6362;50.208;9.182;2022-08-05T12:08:44;5.13;;;2.88;;
12593;SDS011;6362;50.208;9.182;2022-08-05T12:11:10;4.10;;;3.05;;
12593;SDS011;6362;50.208;9.182;2022-08-05T12:13:44;4.57;;;2.70;;
12593;SDS011;6362;50.208;9.182;2022-08-05T12:16:19;5.50;;;2.90;;
12593;SDS011;6362;50.208;9.182;2022-08-05T12:18:46;5.32;;;3.03;;
12593;SDS011;6362;50.208;9.182;2022-08-05T12:21:14;4.68;;;3.17;;
12593;SDS011;6362;50.208;9.182;2022-08-05T12:26:33;6.43;;;2.67;;
12593;SDS011;6362;50.208;9.182;2022-08-05T12:29:06;4.70;;;3.05;;
12593;SDS011;6362;50.208;9.182;2022-08-05T12:31:49;4.70;;;2.83;;
12593;SDS011;6362;50.208;9.182;2022-08-05T12:34:20;5.60;;;2.90;;
12593;SDS011;6362;50.208;9.182;2022-08-05T12:36:48;4.03;;;2.53;;
12593;SDS011;6362;50.208;9.182;2022-08-05T12:39:16;6.72;;;3.38;;
12593;SDS011;6362;50.208;9.182;2022-08-05T12:41:41;3.42;;;2.47;;
12593;SDS011;6362;50.208;9.182;2022-08-05T12:44:08;6.68;;;2.80;;
12593;SDS011;6362;50.208;9.182;2022-08-05T12:46:36;3.55;;;2.35;;
12593;SDS011;6362;50.208;9.182;2022-08-05T12:51:42;3.90;;;2.38;;
12593;SDS011;6362;50.208;9.182;2022-08-05T12:54:17;3.88;;;2.42;;
12593;SDS011;6362;50.208;9.182;2022-08-05T12:56:46;4.13;;;2.40;;
12593;SDS011;6362;50.208;9.182;2022-08-05T13:01:51;3.10;;;2.17;;
12593;SDS011;6362;50.208;9.182;2022-08-05T13:04:41;4.75;;;2.10;;
12593;SDS011;6362;50.208;9.182;2022-08-05T13:07:08;3.13;;;2.10;;
12593;SDS011;6362;50.208;9.182;2022-08-05T13:09:36;3.55;;;1.98;;
12593;SDS011;6362;50.208;9.182;2022-08-05T13:12:07;3.47;;;2.20;;
12593;SDS011;6362;50.208;9.182;2022-08-05T13:14:49;3.10;;;2.05;;
12593;SDS011;6362;50.208;9.182;2022-08-05T13:19:59;5.15;;;2.60;;
12593;SDS011;6362;50.208;9.182;2022-08-05T13:22:37;3.25;;;2.40;;
12593;SDS011;6362;50.208;9.182;2022-08-05T13:25:09;3.20;;;2.17;;
12593;SDS011;6362;50.208;9.182;2022-08-05T13:27:39;4.25;;;2.33;;
12593;SDS011;6362;50.208;9.182;2022-08-05T13:30:13;5.60;;;3.05;;
12593;SDS011;6362;50.208;9.182;2022-08-05T13:32:40;4.65;;;2.63;;
12593;SDS011;6362;50.208;9.182;2022-08-05T13:35:07;4.60;;;2.90;;
12593;SDS011;6362;50.208;9.182;2022-08-05T13:37:33;4.47;;;3.20;;
12593;SDS011;6362;50.208;9.182;2022-08-05T13:39:59;5.15;;;3.78;;
12593;SDS011;6362;50.208;9.182;2022-08-05T13:42:25;5.18;;;3.75;;
12593;SDS011;6362;50.208;9.182;2022-08-05T13:44:53;6.35;;;3.70;;
12593;SDS011;6362;50.208;9.182;2022-08-05T13:47:19;5.63;;;3.95;;
12593;SDS011;6362;50.208;9.182;2022-08-05T13:49:46;6.03;;;3.97;;
12593;SDS011;6362;50.208;9.182;2022-08-05T13:52:12;5.43;;;3.70;;
12593;SDS011;6362;50.208;9.182;2022-08-05T13:54:39;5.38;;;4.38;;
12593;SDS011;6362;50.208;9.182;2022-08-05T13:57:05;6.03;;;3.92;;
12593;SDS011;6362;50.208;9.182;2022-08-05T13:59:31;6.72;;;4.82;;
12593;SDS011;6362;50.208;9.182;2022-08-05T14:01:58;8.32;;;5.75;;
12593;SDS011;6362;50.208;9.182;2022-08-05T14:04:24;6.95;;;5.47;;
12593;SDS011;6362;50.208;9.182;2022-08-05T14:07:08;5.90;;;4.97;;
12593;SDS011;6362;50.208;9.182;2022-08-05T14:09:35;6.47;;;5.82;;
12593;SDS011;6362;50.208;9.182;2022-08-05T14:12:01;7.97;;;5.80;;
12593;SDS011;6362;50.208;9.182;2022-08-05T14:14:27;7.88;;;5.65;;
12593;SDS011;6362;50.208;9.182;2022-08-05T14:16:53;5.43;;;4.93;;
12593;SDS011;6362;50.208;9.182;2022-08-05T14:19:18;6.38;;;4.40;;
12593;SDS011;6362;50.208;9.182;2022-08-05T14:21:43;6.13;;;4.38;;
12593;SDS011;6362;50.208;9.182;2022-08-05T14:24:09;5.10;;;4.32;;
12593;SDS011;6362;50.208;9.182;2022-08-05T14:26:36;4.40;;;3.75;;
12593;SDS011;6362;50.208;9.182;2022-08-05T14:29:02;5.18;;;3.95;;
12593;SDS011;6362;50.208;9.182;2022-08-05T14:31:28;5.88;;;4.43;;
12593;SDS011;6362;50.208;9.182;2022-08-05T14:33:54;6.25;;;4.57;;
12593;SDS011;6362;50.208;9.182;2022-08-05T14:36:20;5.75;;;4.78;;
12593;SDS011;6362;50.208;9.182;2022-08-05T14:38:45;6.43;;;4.80;;
12593;SDS011;6362;50.208;9.182;2022-08-05T14:41:10;4.93;;;4.15;;
12593;SDS011;6362;50.208;9.182;2022-08-05T14:43:36;5.93;;;4.80;;
12593;SDS011;6362;50.208;9.182;2022-08-05T14:46:02;6.50;;;5.00;;
12593;SDS011;6362;50.208;9.182;2022-08-05T14:48:27;5.18;;;4.40;;
12593;SDS011;6362;50.208;9.182;2022-08-05T14:50:53;7.10;;;4.60;;
12593;SDS011;6362;50.208;9.182;2022-08-05T14:53:18;5.70;;;4.30;;
12593;SDS011;6362;50.208;9.182;2022-08-05T14:55:44;6.35;;;4.60;;
12593;SDS011;6362;50.208;9.182;2022-08-05T14:58:09;5.80;;;4.50;;
12593;SDS011;6362;50.208;9.182;2022-08-05T15:00:35;5.18;;;4.68;;
12593;SDS011;6362;50.208;9.182;2022-08-05T15:03:01;6.40;;;4.80;;
12593;SDS011;6362;50.208;9.182;2022-08-05T15:05:26;7.90;;;5.30;;
12593;SDS011;6362;50.208;9.182;2022-08-05T15:07:52;6.15;;;5.00;;
12593;SDS011;6362;50.208;9.182;2022-08-05T15:10:17;5.97;;;4.50;;
12593;SDS011;6362;50.208;9.182;2022-08-05T15:12:43;7.07;;;5.38;;
12593;SDS011;6362;50.208;9.182;2022-08-05T15:15:08;5.70;;;4.90;;
12593;SDS011;6362;50.208;9.182;2022-08-05T15:17:34;5.82;;;5.22;;
12593;SDS011;6362;50.208;9.182;2022-08-05T15:20:00;5.00;;;4.25;;
12593;SDS011;6362;50.208;9.182;2022-08-05T15:22:27;6.63;;;5.05;;
12593;SDS011;6362;50.208;9.182;2022-08-05T15:24:52;7.13;;;5.65;;
12593;SDS011;6362;50.208;9.182;2022-08-05T15:27:18;7.65;;;6.00;;
12593;SDS011;6362;50.208;9.182;2022-08-05T15:29:43;7.70;;;6.18;;
12593;SDS011;6362;50.208;9.182;2022-08-05T15:32:08;8.23;;;6.75;;
12593;SDS011;6362;50.208;9.182;2022-08-05T15:34:34;7.90;;;6.10;;
12593;SDS011;6362;50.208;9.182;2022-08-05T15:37:00;7.43;;;5.90;;
12593;SDS011;6362;50.208;9.182;2022-08-05T15:39:26;9.35;;;6.40;;
12593;SDS011;6362;50.208;9.182;2022-08-05T15:41:51;9.35;;;7.00;;
12593;SDS011;6362;50.208;9.182;2022-08-05T15:44:16;9.73;;;7.07;;
12593;SDS011;6362;50.208;9.182;2022-08-05T15:46:42;7.75;;;5.93;;
12593;SDS011;6362;50.208;9.182;2022-08-05T15:49:07;8.10;;;6.20;;
12593;SDS011;6362;50.208;9.182;2022-08-05T15:51:32;9.27;;;6.03;;
12593;SDS011;6362;50.208;9.182;2022-08-05T15:53:58;7.90;;;5.35;;
12593;SDS011;6362;50.208;9.182;2022-08-05T15:56:23;8.05;;;5.95;;